createdAt,value
2022-11-18T00:01:28.047Z,9.10
2022-11-18T00:03:54.655Z,9.12
2022-11-18T00:06:24.337Z,9.13
2022-11-18T00:08:53.069Z,9.12
2022-11-18T00:11:45.313Z,9.14
2022-11-18T00:14:30.196Z,9.14
2022-11-18T00:17:01.090Z,9.12
2022-11-18T00:19:30.275Z,9.14
2022-11-18T00:21:57.260Z,9.18
2022-11-18T00:24:25.000Z,9.15
2022-11-18T00:26:51.970Z,9.19
2022-11-18T00:29:19.392Z,9.19
2022-11-18T00:31:46.362Z,9.20
2022-11-18T00:34:14.960Z,9.22
2022-11-18T00:36:43.229Z,9.21
2022-11-18T00:39:12.557Z,9.20
2022-11-18T00:41:59.118Z,9.18
2022-11-18T00:44:25.896Z,9.20
2022-11-18T00:46:53.392Z,9.19
2022-11-18T00:49:20.039Z,9.20
2022-11-18T00:51:46.730Z,9.21
2022-11-18T00:54:13.341Z,9.20
2022-11-18T00:56:39.910Z,9.13
2022-11-18T00:59:06.618Z,9.16
2022-11-18T01:01:33.315Z,9.12
2022-11-18T01:04:00.032Z,9.13
2022-11-18T01:06:26.867Z,9.13
2022-11-18T01:08:53.405Z,9.09
2022-11-18T01:11:39.873Z,9.11
2022-11-18T01:14:06.437Z,9.11
2022-11-18T01:16:33.062Z,9.11
2022-11-18T01:19:01.564Z,9.11
2022-11-18T01:21:30.164Z,9.10
2022-11-18T01:23:58.495Z,9.11
2022-11-18T01:26:27.155Z,9.12
2022-11-18T01:28:58.535Z,9.13
2022-11-18T01:31:27.145Z,9.10
2022-11-18T01:33:54.958Z,9.11
2022-11-18T01:36:26.785Z,9.10
2022-11-18T01:38:56.136Z,9.11
2022-11-18T01:41:27.280Z,9.08
2022-11-18T01:43:59.889Z,9.07
2022-11-18T01:46:29.575Z,9.05
2022-11-18T01:51:45.006Z,9.06
2022-11-18T01:54:19.366Z,9.05
2022-11-18T01:56:52.205Z,9.07
2022-11-18T01:59:24.265Z,9.07
2022-11-18T02:01:54.016Z,9.04
2022-11-18T02:04:25.404Z,9.07
2022-11-18T02:06:52.463Z,9.05
2022-11-18T02:09:19.227Z,9.07
2022-11-18T02:12:01.813Z,9.04
2022-11-18T02:14:31.970Z,9.06
2022-11-18T02:22:58.449Z,9.00
2022-11-18T02:26:02.385Z,8.99
2022-11-18T02:29:08.797Z,8.98
2022-11-18T02:37:28.904Z,9.02
2022-11-18T02:40:02.590Z,9.03
2022-11-18T02:42:32.651Z,9.00
2022-11-18T02:45:05.968Z,9.02
2022-11-18T02:47:35.996Z,9.03
2022-11-18T02:50:06.751Z,9.03
2022-11-18T02:52:37.212Z,8.99
2022-11-18T02:55:09.564Z,9.02
2022-11-18T02:57:38.124Z,9.02
2022-11-18T03:00:05.369Z,8.99
2022-11-18T03:02:41.807Z,8.98
2022-11-18T03:05:13.306Z,8.99
2022-11-18T03:07:44.344Z,9.00
2022-11-18T03:10:11.083Z,8.99
2022-11-18T03:18:36.269Z,8.99
2022-11-18T03:21:18.670Z,8.97
2022-11-18T03:24:05.844Z,8.99
2022-11-18T03:26:39.085Z,8.97
2022-11-18T03:29:13.187Z,8.99
2022-11-18T03:31:43.730Z,8.99
2022-11-18T03:36:52.238Z,8.99
2022-11-18T03:39:21.879Z,9.03
2022-11-18T03:41:56.847Z,9.02
2022-11-18T03:44:36.239Z,9.02
2022-11-18T03:47:09.139Z,9.02
2022-11-18T03:49:43.468Z,9.03
2022-11-18T03:52:17.140Z,9.03
2022-11-18T03:54:46.681Z,9.05
2022-11-18T03:57:20.466Z,9.06
2022-11-18T03:59:55.233Z,9.05
2022-11-18T04:02:25.120Z,8.98
2022-11-18T04:04:55.260Z,9.07
2022-11-18T04:07:34.927Z,9.08
2022-11-18T04:10:26.200Z,9.01
2022-11-18T04:13:06.130Z,9.05
2022-11-18T04:15:36.553Z,9.06
2022-11-18T04:18:03.187Z,9.08
2022-11-18T04:20:31.737Z,9.08
2022-11-18T04:22:58.371Z,9.08
2022-11-18T04:25:25.138Z,9.08
2022-11-18T04:27:51.874Z,9.07
2022-11-18T04:30:19.537Z,9.08
2022-11-18T04:32:46.292Z,9.07
2022-11-18T04:35:12.940Z,9.07
2022-11-18T04:37:39.492Z,9.04
2022-11-18T04:40:06.589Z,9.05
2022-11-18T04:42:33.139Z,9.06
2022-11-18T04:44:59.869Z,9.05
2022-11-18T04:47:26.633Z,9.05
2022-11-18T04:49:53.164Z,9.05
2022-11-18T04:52:19.896Z,9.08
2022-11-18T04:54:46.855Z,9.06
2022-11-18T04:57:14.186Z,9.07
2022-11-18T04:59:40.893Z,9.04
2022-11-18T05:02:07.593Z,9.00
2022-11-18T05:04:34.947Z,9.05
2022-11-18T05:07:03.285Z,9.03
2022-11-18T05:09:31.993Z,9.04
2022-11-18T05:12:19.613Z,9.05
2022-11-18T05:14:50.088Z,9.05
2022-11-18T05:17:16.999Z,9.04
2022-11-18T05:19:43.528Z,9.04
2022-11-18T05:22:10.102Z,9.03
2022-11-18T05:24:36.693Z,8.97
2022-11-18T05:27:03.382Z,8.98
2022-11-18T05:29:29.953Z,9.00
2022-11-18T05:31:56.545Z,9.00
2022-11-18T05:34:23.171Z,9.01
2022-11-18T05:36:49.737Z,9.01
2022-11-18T05:39:16.770Z,9.01
2022-11-18T05:42:03.504Z,9.00
2022-11-18T05:44:30.040Z,9.03
2022-11-18T05:46:56.675Z,9.02
2022-11-18T05:49:23.636Z,9.04
2022-11-18T05:51:50.164Z,9.00
2022-11-18T05:54:19.356Z,9.04
2022-11-18T05:56:46.054Z,9.06
2022-11-18T05:59:13.992Z,9.03
2022-11-18T06:01:48.568Z,9.05
2022-11-18T06:07:00.427Z,9.07
2022-11-18T06:09:31.040Z,9.08
2022-11-18T06:12:00.124Z,9.08
2022-11-18T06:17:08.894Z,9.07
2022-11-18T06:19:35.551Z,9.05
2022-11-18T06:22:03.369Z,9.05
2022-11-18T06:24:30.108Z,9.08
2022-11-18T06:26:58.733Z,9.08
2022-11-18T06:29:27.972Z,9.06
2022-11-18T06:31:54.982Z,9.05
2022-11-18T06:34:21.537Z,9.05
2022-11-18T06:36:48.093Z,9.07
2022-11-18T06:39:14.727Z,9.06
2022-11-18T06:41:41.281Z,9.05
2022-11-18T06:44:07.930Z,9.04
2022-11-18T06:46:54.405Z,9.04
2022-11-18T06:49:21.334Z,9.04
2022-11-18T06:51:48.259Z,9.03
2022-11-18T06:54:14.937Z,8.99
2022-11-18T06:56:41.488Z,9.00
2022-11-18T06:59:08.284Z,9.00
2022-11-18T07:01:37.536Z,9.02
2022-11-18T07:04:04.928Z,9.04
2022-11-18T07:06:34.224Z,9.05
2022-11-18T07:09:02.532Z,9.06
2022-11-18T07:11:29.497Z,9.04
2022-11-18T07:13:56.374Z,9.01
2022-11-18T07:16:25.102Z,8.98
2022-11-18T07:18:53.305Z,8.96
2022-11-18T07:21:22.296Z,8.98
2022-11-18T07:23:49.144Z,8.97
2022-11-18T07:26:16.611Z,8.97
2022-11-18T07:28:43.631Z,8.97
2022-11-18T07:31:13.426Z,8.98
2022-11-18T07:33:41.497Z,9.01
2022-11-18T07:38:47.189Z,9.04
2022-11-18T07:41:17.885Z,9.06
2022-11-18T07:43:45.140Z,9.04
2022-11-18T07:46:16.244Z,9.09
2022-11-18T07:48:44.355Z,9.06
2022-11-18T07:51:11.760Z,9.08
2022-11-18T07:53:38.622Z,9.06
2022-11-18T07:56:06.178Z,9.09
2022-11-18T07:58:32.808Z,9.10
2022-11-18T08:00:59.623Z,9.11
2022-11-18T08:03:27.811Z,9.12
2022-11-18T08:06:00.476Z,9.14
2022-11-18T08:08:27.096Z,9.15
2022-11-18T08:11:03.850Z,9.14
2022-11-18T08:13:30.461Z,9.08
2022-11-18T08:15:57.682Z,9.13
2022-11-18T08:18:25.308Z,9.16
2022-11-18T08:20:52.081Z,9.18
2022-11-18T08:23:18.608Z,9.18
2022-11-18T08:25:46.244Z,9.19
2022-11-18T08:28:14.754Z,9.20
2022-11-18T08:30:41.426Z,9.19
2022-11-18T08:33:07.977Z,9.22
2022-11-18T08:35:34.542Z,9.24
2022-11-18T08:38:01.086Z,9.25
2022-11-18T08:40:27.632Z,9.26
2022-11-18T08:42:54.157Z,9.28
2022-11-18T08:45:20.751Z,9.28
2022-11-18T08:47:47.283Z,9.27
2022-11-18T08:50:13.825Z,9.27
2022-11-18T08:52:40.391Z,9.29
2022-11-18T08:55:07.195Z,9.31
2022-11-18T08:57:33.768Z,9.33
2022-11-18T09:00:00.472Z,9.35
2022-11-18T09:02:27.076Z,9.38
2022-11-18T09:04:53.663Z,9.39
2022-11-18T09:07:22.313Z,9.41
2022-11-18T09:09:48.912Z,9.40
2022-11-18T09:12:17.564Z,9.42
2022-11-18T09:17:32.065Z,9.52
2022-11-18T09:19:58.655Z,9.56
2022-11-18T09:22:25.185Z,9.60
2022-11-18T09:24:51.844Z,9.67
2022-11-18T09:27:18.428Z,9.81
2022-11-18T09:29:45.614Z,9.95
2022-11-18T09:32:12.362Z,10.02
2022-11-18T09:34:38.966Z,10.08
2022-11-18T09:37:06.921Z,10.12
2022-11-18T09:39:37.026Z,10.18
2022-11-18T09:47:38.016Z,10.57
2022-11-18T09:50:41.525Z,10.45
2022-11-18T09:53:17.873Z,10.45
2022-11-18T09:55:45.207Z,10.67
2022-11-18T09:58:29.836Z,10.75
2022-11-18T10:00:56.427Z,10.75
2022-11-18T10:03:29.016Z,10.74
2022-11-18T10:06:15.996Z,10.75
2022-11-18T10:09:09.596Z,10.77
2022-11-18T10:19:39.189Z,12.49
2022-11-18T10:24:49.103Z,12.88
2022-11-18T10:27:16.376Z,12.94
2022-11-18T10:29:44.941Z,13.00
2022-11-18T10:32:14.791Z,13.02
2022-11-18T10:34:58.795Z,13.00
2022-11-18T10:40:05.017Z,13.07
2022-11-18T10:42:46.478Z,13.06
2022-11-18T10:45:31.299Z,13.03
2022-11-18T10:53:33.031Z,13.17
2022-11-18T10:58:41.269Z,13.22
2022-11-18T11:01:21.817Z,13.22
2022-11-18T11:04:02.450Z,13.23
2022-11-18T11:06:38.034Z,13.23
2022-11-18T11:14:44.426Z,13.06
2022-11-18T11:19:55.671Z,12.79
2022-11-18T11:22:22.671Z,12.73
2022-11-18T11:24:49.672Z,12.68
2022-11-18T11:30:19.958Z,12.63
2022-11-18T11:35:27.028Z,12.56
2022-11-18T11:37:58.317Z,12.51
2022-11-18T11:51:32.680Z,12.31
2022-11-18T12:07:15.650Z,12.14
2022-11-18T12:10:22.121Z,12.08
2022-11-18T12:13:15.981Z,12.06
2022-11-18T12:18:38.328Z,12.31
2022-11-18T12:21:04.985Z,12.16
2022-11-18T12:23:33.223Z,12.14
2022-11-18T12:26:06.905Z,12.16
2022-11-18T12:28:43.138Z,12.21
2022-11-18T12:34:06.815Z,12.27
2022-11-18T12:42:24.646Z,12.10
2022-11-18T12:44:52.480Z,12.07
2022-11-18T12:50:21.656Z,12.00
2022-11-18T12:52:49.494Z,11.96
2022-11-18T12:55:22.125Z,11.93
2022-11-18T12:57:48.680Z,11.90
2022-11-18T13:02:56.437Z,12.16
2022-11-18T13:05:27.185Z,11.95
2022-11-18T13:08:13.875Z,11.83
2022-11-18T13:16:22.623Z,11.80
2022-11-18T13:18:52.918Z,11.77
2022-11-18T13:21:43.453Z,11.76
2022-11-18T13:24:14.861Z,11.76
2022-11-18T13:26:43.359Z,11.78
2022-11-18T13:32:24.742Z,11.66
2022-11-18T13:34:54.213Z,11.69
2022-11-18T13:37:25.753Z,11.67
2022-11-18T13:39:53.144Z,11.63
2022-11-18T13:42:23.669Z,11.64
2022-11-18T13:44:56.523Z,11.66
2022-11-18T13:55:28.867Z,11.82
2022-11-18T13:58:03.226Z,11.80
2022-11-18T14:00:33.006Z,11.81
2022-11-18T14:03:03.252Z,11.80
2022-11-18T14:05:30.185Z,11.82
2022-11-18T14:10:43.257Z,11.82
2022-11-18T14:15:57.586Z,11.87
2022-11-18T14:18:29.596Z,11.72
2022-11-18T14:20:56.269Z,11.82
2022-11-18T14:23:28.886Z,11.81
2022-11-18T14:25:56.848Z,11.81
2022-11-18T14:31:03.945Z,11.77
2022-11-18T14:33:32.360Z,11.74
2022-11-18T14:36:01.713Z,11.72
2022-11-18T14:41:10.825Z,11.99
2022-11-18T14:43:37.663Z,11.79
2022-11-18T14:46:11.018Z,11.75
2022-11-18T14:48:37.834Z,11.72
2022-11-18T14:51:04.832Z,11.69
2022-11-18T14:53:31.464Z,11.67
2022-11-18T14:56:00.151Z,11.66
2022-11-18T14:58:26.802Z,11.59
2022-11-18T15:00:53.406Z,11.55
2022-11-18T15:03:20.105Z,11.47
2022-11-18T15:05:46.828Z,11.43
2022-11-18T15:08:13.761Z,11.38
2022-11-18T15:10:40.512Z,11.33
2022-11-18T15:13:07.055Z,11.26
2022-11-18T15:15:33.581Z,11.19
2022-11-18T15:18:00.134Z,11.12
2022-11-18T15:20:26.724Z,11.05
2022-11-18T15:22:53.334Z,11.00
2022-11-18T15:25:19.944Z,10.96
2022-11-18T15:27:46.548Z,10.91
2022-11-18T15:30:15.578Z,10.85
2022-11-18T15:32:42.725Z,10.85
2022-11-18T15:35:11.969Z,10.83
2022-11-18T15:37:39.185Z,10.82
2022-11-18T15:40:06.081Z,10.80
2022-11-18T15:42:36.390Z,10.73
2022-11-18T15:45:06.879Z,10.69
2022-11-18T15:47:33.471Z,10.62
2022-11-18T15:50:00.094Z,10.58
2022-11-18T15:52:28.389Z,10.53
2022-11-18T15:54:55.229Z,10.48
2022-11-18T15:57:21.732Z,10.46
2022-11-18T15:59:48.908Z,10.46
2022-11-18T16:02:15.527Z,10.46
2022-11-18T16:04:42.103Z,10.45
2022-11-18T16:07:08.702Z,10.41
2022-11-18T16:09:55.165Z,10.39
2022-11-18T16:12:41.667Z,10.36
2022-11-18T16:15:28.511Z,10.32
2022-11-18T16:17:55.709Z,10.30
2022-11-18T16:20:22.376Z,10.29
2022-11-18T16:22:49.102Z,10.31
2022-11-18T16:25:15.641Z,10.28
2022-11-18T16:27:42.181Z,10.27
2022-11-18T16:30:29.062Z,10.26
2022-11-18T16:32:55.922Z,10.24
2022-11-18T16:35:22.515Z,10.24
2022-11-18T16:37:49.261Z,10.23
2022-11-18T16:40:16.150Z,10.21
2022-11-18T16:42:42.753Z,10.18
2022-11-18T16:45:09.909Z,10.15
2022-11-18T16:47:38.492Z,10.11
2022-11-18T16:50:05.410Z,10.08
2022-11-18T16:52:31.932Z,10.02
2022-11-18T16:54:58.496Z,10.00
2022-11-18T16:57:25.397Z,9.95
2022-11-18T16:59:51.953Z,9.92
2022-11-18T17:02:20.498Z,9.89
2022-11-18T17:04:47.123Z,9.86
2022-11-18T17:07:13.739Z,9.82
2022-11-18T17:09:40.408Z,9.80
2022-11-18T17:12:07.260Z,9.76
2022-11-18T17:14:34.296Z,9.76
2022-11-18T17:17:00.802Z,9.75
2022-11-18T17:19:27.353Z,9.73
2022-11-18T17:21:54.301Z,9.72
2022-11-18T17:24:23.011Z,9.69
2022-11-18T17:26:50.837Z,9.65
2022-11-18T17:29:18.554Z,9.62
2022-11-18T17:31:45.299Z,9.62
2022-11-18T17:34:13.915Z,9.61
2022-11-18T17:36:41.414Z,9.63
2022-11-18T17:39:10.851Z,9.63
2022-11-18T17:41:57.735Z,9.62
2022-11-18T17:44:24.723Z,9.62
2022-11-18T17:46:51.353Z,9.62
2022-11-18T17:49:19.081Z,9.61
2022-11-18T17:51:47.045Z,9.60
2022-11-18T17:54:14.453Z,9.60
2022-11-18T17:56:41.322Z,9.59
2022-11-18T17:59:08.026Z,9.60
2022-11-18T18:01:34.767Z,9.58
2022-11-18T18:04:01.413Z,9.58
2022-11-18T18:06:28.012Z,9.57
2022-11-18T18:08:56.911Z,9.56
2022-11-18T18:11:23.942Z,9.53
2022-11-18T18:14:10.717Z,9.53
2022-11-18T18:16:37.317Z,9.49
2022-11-18T18:19:06.001Z,9.46
2022-11-18T18:21:32.718Z,9.42
2022-11-18T18:23:59.947Z,9.42
2022-11-18T18:26:31.295Z,9.41
2022-11-18T18:28:59.715Z,9.39
2022-11-18T18:31:26.829Z,9.38
2022-11-18T18:33:53.643Z,9.40
2022-11-18T18:36:21.390Z,9.39
2022-11-18T18:38:48.237Z,9.38
2022-11-18T18:41:17.534Z,9.37
2022-11-18T18:43:46.070Z,9.35
2022-11-18T18:46:32.395Z,9.34
2022-11-18T18:49:08.792Z,9.33
2022-11-18T18:51:37.976Z,9.34
2022-11-18T18:54:05.163Z,9.34
2022-11-18T18:56:32.721Z,9.34
2022-11-18T18:58:59.808Z,9.33
2022-11-18T19:01:27.918Z,9.35
2022-11-18T19:03:58.037Z,9.35
2022-11-18T19:09:15.258Z,9.34
2022-11-18T19:12:02.450Z,9.34
2022-11-18T19:14:29.520Z,9.32
2022-11-18T19:16:56.291Z,9.33
2022-11-18T19:19:45.792Z,9.33
2022-11-18T19:22:14.814Z,9.30
2022-11-18T19:27:29.148Z,9.26
2022-11-18T19:29:55.754Z,9.25
2022-11-18T19:32:22.402Z,9.26
2022-11-18T19:34:49.080Z,9.24
2022-11-18T19:37:15.720Z,9.26
2022-11-18T19:39:42.416Z,9.28
2022-11-18T19:42:11.015Z,9.25
2022-11-18T19:44:38.450Z,9.25
2022-11-18T19:47:05.119Z,9.25
2022-11-18T19:49:31.738Z,9.23
2022-11-18T19:51:58.295Z,9.19
2022-11-18T19:54:24.880Z,9.15
2022-11-18T19:56:51.454Z,9.14
2022-11-18T19:59:18.265Z,9.11
2022-11-18T20:01:45.092Z,9.13
2022-11-18T20:04:11.769Z,9.11
2022-11-18T20:06:38.371Z,9.07
2022-11-18T20:09:10.040Z,9.05
2022-11-18T20:11:38.240Z,9.03
2022-11-18T20:14:05.803Z,9.03
2022-11-18T20:16:33.664Z,9.03
2022-11-18T20:19:06.422Z,8.99
2022-11-18T20:21:34.580Z,8.98
2022-11-18T20:24:03.001Z,8.97
2022-11-18T20:26:36.352Z,8.96
2022-11-18T20:29:03.259Z,8.95
2022-11-18T20:31:30.364Z,8.91
2022-11-18T20:33:57.464Z,8.89
2022-11-18T20:36:27.013Z,8.83
2022-11-18T20:38:56.481Z,8.78
2022-11-18T20:41:24.135Z,8.76
2022-11-18T20:43:51.136Z,8.74
2022-11-18T20:46:21.034Z,8.72
2022-11-18T20:48:48.934Z,8.70
2022-11-18T20:51:19.122Z,8.69
2022-11-18T20:53:46.114Z,8.56
2022-11-18T20:56:17.235Z,8.64
2022-11-18T20:58:44.287Z,8.64
2022-11-18T21:01:13.518Z,8.65
2022-11-18T21:03:41.517Z,8.66
2022-11-18T21:06:14.106Z,8.66
2022-11-18T21:08:42.190Z,8.61
2022-11-18T21:11:11.315Z,8.60
2022-11-18T21:13:58.741Z,8.61
2022-11-18T21:16:26.931Z,8.58
2022-11-18T21:18:53.967Z,8.62
2022-11-18T21:21:40.463Z,8.62
2022-11-18T21:24:07.724Z,8.57
2022-11-18T21:26:35.888Z,8.65
2022-11-18T21:29:08.828Z,8.68
2022-11-18T21:31:36.018Z,8.69
2022-11-18T21:34:02.973Z,8.70
2022-11-18T21:36:29.798Z,8.68
2022-11-18T21:38:59.065Z,8.67
2022-11-18T21:41:26.914Z,8.64
2022-11-18T21:44:09.269Z,8.56
2022-11-18T21:46:37.726Z,8.57
2022-11-18T21:49:05.334Z,8.56
2022-11-18T21:51:32.750Z,8.60
2022-11-18T21:54:00.666Z,8.59
2022-11-18T21:56:30.512Z,8.63
2022-11-18T21:58:58.492Z,8.64
2022-11-18T22:01:27.269Z,8.63
2022-11-18T22:03:56.028Z,8.64
2022-11-18T22:06:24.736Z,8.62
2022-11-18T22:08:51.903Z,8.56
2022-11-18T22:11:20.416Z,8.49
2022-11-18T22:13:47.078Z,8.47
2022-11-18T22:16:16.748Z,8.38
2022-11-18T22:18:45.637Z,8.34
2022-11-18T22:21:14.440Z,8.33
2022-11-18T22:23:41.661Z,8.32
2022-11-18T22:26:12.715Z,8.32
2022-11-18T22:28:39.346Z,8.33
2022-11-18T22:31:09.334Z,8.32
2022-11-18T22:33:35.913Z,8.34
2022-11-18T22:38:40.064Z,8.36
2022-11-18T22:41:09.921Z,8.36
2022-11-18T22:43:36.481Z,8.35
2022-11-18T22:46:06.749Z,8.34
2022-11-18T22:48:33.488Z,8.23
2022-11-18T22:51:03.753Z,8.27
2022-11-18T22:53:30.688Z,8.17
2022-11-18T22:56:03.468Z,8.21
2022-11-18T22:58:30.624Z,8.21
2022-11-18T23:01:02.195Z,8.19
2022-11-18T23:03:28.835Z,8.19
2022-11-18T23:05:55.676Z,8.19
2022-11-18T23:08:23.540Z,8.21
2022-11-18T23:10:50.616Z,8.22
2022-11-18T23:13:37.995Z,8.24
2022-11-18T23:16:04.678Z,8.17
2022-11-18T23:18:31.222Z,8.19
2022-11-18T23:21:00.699Z,8.23
2022-11-18T23:23:28.650Z,8.23
2022-11-18T23:26:02.238Z,8.22
2022-11-18T23:28:28.883Z,8.23
2022-11-18T23:31:05.489Z,8.19
2022-11-18T23:33:33.046Z,8.18
2022-11-18T23:35:59.647Z,8.24
2022-11-18T23:38:29.173Z,8.19
2022-11-18T23:40:58.066Z,8.26
2022-11-18T23:43:25.395Z,8.26
2022-11-18T23:45:52.580Z,8.26
2022-11-18T23:48:20.912Z,8.23
2022-11-18T23:50:56.620Z,8.23
2022-11-18T23:53:24.008Z,8.25
2022-11-18T23:55:50.701Z,8.21
2022-11-18T23:58:18.327Z,8.21
